Time;durP1;ratioP1;P1;durP2;ratioP2;P2;SDS_P1;SDS_P2;PMS_P1;PMS_P2;Temp;Humidity;BMP_temperature;BMP_pressure;BME280_temperature;BME280_humidity;BME280_pressure;Samples;Min_cycle;Max_cycle;Signal;HPM_P1;HPM_P2
2022/09/23 00:00:32;;;;;;;14.90;8.50;;;24.70;99.90;;;;;;5065764;22;20064;-54
2022/09/23 00:02:58;;;;;;;15.68;8.45;;;24.70;99.90;;;;;;5014826;28;20532;-54
2022/09/23 00:05:26;;;;;;;17.15;8.38;;;24.70;99.90;;;;;;5032661;28;20434;-54
2022/09/23 00:07:51;;;;;;;14.98;8.55;;;24.70;99.90;;;;;;5032420;28;20315;-54
2022/09/23 00:10:17;;;;;;;18.83;9.50;;;24.60;99.90;;;;;;5032398;28;20029;-54
2022/09/23 00:12:43;;;;;;;16.50;9.50;;;24.60;99.90;;;;;;5032356;28;20032;-54
2022/09/23 00:15:10;;;;;;;15.25;9.35;;;24.60;99.90;;;;;;5032297;28;20021;-55
2022/09/23 00:17:36;;;;;;;24.00;11.20;;;24.60;99.90;;;;;;5032287;28;20029;-54
2022/09/23 00:20:02;;;;;;;18.52;9.82;;;24.60;99.90;;;;;;5032603;28;20382;-53
2022/09/23 00:22:28;;;;;;;16.05;11.10;;;24.60;99.90;;;;;;5032208;28;20037;-53
2022/09/23 00:24:53;;;;;;;17.08;11.30;;;24.60;99.90;;;;;;5032175;28;20026;-53
2022/09/23 00:27:20;;;;;;;24.70;12.45;;;24.60;99.90;;;;;;5032145;28;20041;-54
2022/09/23 00:29:47;;;;;;;21.83;12.95;;;24.50;99.90;;;;;;5032048;28;20104;-53
2022/09/23 00:32:13;;;;;;;19.05;13.77;;;24.50;99.90;;;;;;5031950;28;20087;-53
2022/09/23 00:34:39;;;;;;;27.90;14.98;;;24.50;99.90;;;;;;5031837;28;20021;-53
2022/09/23 00:37:05;;;;;;;20.30;13.65;;;24.40;99.90;;;;;;5031907;28;20030;-52
2022/09/23 00:39:31;;;;;;;19.73;13.18;;;24.40;99.90;;;;;;5032057;28;20029;-53
2022/09/23 00:41:56;;;;;;;19.90;12.60;;;24.30;99.90;;;;;;5031716;28;20030;-52
2022/09/23 00:44:49;;;;;;;18.65;11.10;;;24.40;99.90;;;;;;5031789;28;20017;-53
2022/09/23 00:47:31;;;;;;;21.85;13.38;;;24.40;99.90;;;;;;5031750;28;20358;-53
2022/09/23 00:50:09;;;;;;;20.80;12.23;;;24.30;99.90;;;;;;5031760;28;20055;-53
2022/09/23 00:52:36;;;;;;;20.88;11.80;;;24.40;99.90;;;;;;5031467;28;20029;-53
2022/09/23 00:55:07;;;;;;;26.85;11.80;;;24.40;99.90;;;;;;5032105;28;20037;-55
2022/09/23 00:57:36;;;;;;;16.23;11.10;;;24.40;99.90;;;;;;5031698;28;20029;-54
2022/09/23 01:00:03;;;;;;;23.20;12.13;;;24.30;99.90;;;;;;5038290;22;20133;-54
2022/09/23 01:02:30;;;;;;;18.95;12.35;;;24.40;99.90;;;;;;5011722;28;20038;-54
2022/09/23 01:04:56;;;;;;;26.75;13.02;;;24.30;99.90;;;;;;5011795;28;20489;-54
2022/09/23 01:07:22;;;;;;;23.25;13.38;;;24.30;99.90;;;;;;5011826;28;20034;-54
2022/09/23 01:09:48;;;;;;;22.23;13.77;;;24.30;99.90;;;;;;4994143;28;20022;-54
2022/09/23 01:12:49;;;;;;;22.27;14.35;;;24.30;99.90;;;;;;4994083;28;20053;-53
2022/09/23 01:15:20;;;;;;;24.45;16.08;;;24.30;99.90;;;;;;5011636;28;20474;-54
2022/09/23 01:18:26;;;;;;;20.63;13.88;;;24.30;99.90;;;;;;5011621;28;20060;-54
2022/09/23 01:21:03;;;;;;;25.58;13.88;;;24.30;99.90;;;;;;5011507;28;20030;-54
2022/09/23 01:23:35;;;;;;;;;;;24.30;99.90;;;;;;4994478;28;20465;-54
2022/09/23 01:26:07;;;;;;;20.33;13.38;;;24.30;99.90;;;;;;5011678;28;19949;-54
2022/09/23 01:29:01;;;;;;;21.70;15.35;;;24.30;99.90;;;;;;5011661;28;20569;-54
2022/09/23 01:32:01;;;;;;;22.67;15.25;;;24.30;99.90;;;;;;5011673;28;20865;-53
2022/09/23 01:34:38;;;;;;;24.23;14.65;;;24.30;99.90;;;;;;4957950;28;20420;-52
2022/09/23 01:37:31;;;;;;;20.63;14.73;;;24.30;99.90;;;;;;5011613;28;20029;-52
2022/09/23 01:40:05;;;;;;;18.75;12.93;;;24.30;99.90;;;;;;5011382;28;20033;-53
2022/09/23 01:42:39;;;;;;;17.58;11.10;;;24.30;99.90;;;;;;5011302;28;20084;-53
2022/09/23 01:45:31;;;;;;;15.18;9.80;;;24.20;99.90;;;;;;5011534;28;20025;-53
2022/09/23 01:48:13;;;;;;;20.98;10.90;;;24.20;99.90;;;;;;5011309;28;20025;-53
2022/09/23 01:50:56;;;;;;;14.13;8.10;;;24.20;99.90;;;;;;5011379;28;20462;-53
2022/09/23 01:53:42;;;;;;;12.52;7.43;;;24.20;99.90;;;;;;5011364;28;20022;-53
2022/09/23 01:56:38;;;;;;;9.45;6.80;;;24.20;99.90;;;;;;5011466;28;20030;-52
2022/09/23 01:59:37;;;;;;;13.10;7.80;;;24.20;99.90;;;;;;4993729;28;20458;-52
2022/09/23 02:02:15;;;;;;;14.45;8.50;;;24.20;99.90;;;;;;4993400;28;20073;-53
2022/09/23 02:04:50;;;;;;;12.60;8.70;;;24.20;99.90;;;;;;5013938;28;20030;-53
2022/09/23 02:07:21;;;;;;;12.60;6.60;;;24.20;99.90;;;;;;5015009;28;20084;-53
2022/09/23 02:10:21;;;;;;;6.60;4.50;;;24.20;99.90;;;;;;5014790;28;20100;-53
2022/09/23 02:12:49;;;;;;;9.90;4.63;;;24.20;99.90;;;;;;5002238;28;20057;-53
2022/09/23 02:15:31;;;;;;;9.25;4.63;;;24.10;99.90;;;;;;5014689;28;20106;-53
2022/09/23 02:18:12;;;;;;;11.02;4.70;;;24.10;99.90;;;;;;5014758;28;20393;-53
2022/09/23 02:20:40;;;;;;;8.02;4.85;;;24.00;99.90;;;;;;5014774;28;20032;-53
2022/09/23 02:23:14;;;;;;;10.77;4.57;;;24.00;99.90;;;;;;5014807;28;20511;-52
2022/09/23 02:25:49;;;;;;;6.35;4.60;;;24.00;99.90;;;;;;5014791;28;20030;-53
2022/09/23 02:28:22;;;;;;;10.35;5.03;;;24.00;99.90;;;;;;4996853;28;20397;-54
2022/09/23 02:31:15;;;;;;;11.55;5.30;;;23.90;99.90;;;;;;5014427;28;20026;-53
2022/09/23 02:33:56;;;;;;;6.47;3.95;;;24.00;99.90;;;;;;5013821;28;20034;-53
2022/09/23 02:36:28;;;;;;;6.38;4.65;;;24.00;99.90;;;;;;5014306;28;20096;-53
2022/09/23 02:38:59;;;;;;;4.50;3.80;;;24.00;99.90;;;;;;5014342;28;20034;-53
2022/09/23 02:41:31;;;;;;;10.07;4.63;;;24.00;99.90;;;;;;5014317;28;20436;-53
2022/09/23 02:44:07;;;;;;;7.75;4.43;;;24.00;99.90;;;;;;5014191;28;20504;-53
2022/09/23 02:46:35;;;;;;;8.77;3.90;;;24.00;99.90;;;;;;5014102;28;20030;-53
2022/09/23 02:49:20;;;;;;;6.72;4.18;;;23.90;99.90;;;;;;5014219;28;20022;-53
2022/09/23 02:51:46;;;;;;;9.43;5.40;;;23.90;99.90;;;;;;5014032;28;20160;-54
2022/09/23 02:54:17;;;;;;;9.30;4.82;;;24.00;99.90;;;;;;4996619;28;20115;-53
2022/09/23 02:56:42;;;;;;;10.15;4.03;;;24.00;99.90;;;;;;5014352;28;20532;-53
2022/09/23 02:59:10;;;;;;;9.20;4.10;;;24.00;99.90;;;;;;5014067;28;20077;-54
2022/09/23 03:01:39;;;;;;;7.95;3.63;;;23.90;99.90;;;;;;5013965;28;20037;-53
2022/09/23 03:04:19;;;;;;;7.25;4.10;;;23.90;99.90;;;;;;5013907;28;20030;-54
2022/09/23 03:06:58;;;;;;;6.30;3.70;;;23.90;99.90;;;;;;5013987;28;20018;-54
2022/09/23 03:09:27;;;;;;;9.05;4.32;;;23.90;99.90;;;;;;5013837;28;20052;-54
2022/09/23 03:12:07;;;;;;;9.35;4.22;;;23.90;99.90;;;;;;5013568;28;20117;-54
2022/09/23 03:14:52;;;;;;;11.25;5.18;;;23.90;99.90;;;;;;5013281;28;20037;-54
2022/09/23 03:17:26;;;;;;;8.35;3.72;;;23.80;99.90;;;;;;5013583;28;20025;-54
2022/09/23 03:20:18;;;;;;;8.00;4.43;;;23.80;99.90;;;;;;5013789;28;20022;-54
2022/09/23 03:22:48;;;;;;;10.25;4.28;;;23.80;99.90;;;;;;5010429;28;20068;-54
2022/09/23 03:25:19;;;;;;;10.98;4.22;;;23.90;99.90;;;;;;5013649;28;20057;-54
2022/09/23 03:27:44;;;;;;;10.90;4.22;;;23.90;99.90;;;;;;5013761;28;20489;-54
2022/09/23 03:30:12;;;;;;;5.60;3.58;;;23.90;99.90;;;;;;5013678;28;20022;-54
2022/09/23 03:32:41;;;;;;;;;;;23.90;99.90;;;;;;5013784;28;20109;-54
2022/09/23 03:35:07;;;;;;;12.75;4.57;;;23.90;99.90;;;;;;5013193;28;19905;-54
2022/09/23 03:37:55;;;;;;;6.10;3.30;;;23.90;99.90;;;;;;5013193;28;20018;-54
2022/09/23 03:40:28;;;;;;;6.50;3.88;;;23.90;99.90;;;;;;5013148;28;20033;-55
2022/09/23 03:42:56;;;;;;;7.50;3.88;;;23.90;99.90;;;;;;5013169;28;20034;-55
2022/09/23 03:45:26;;;;;;;10.60;4.40;;;23.90;99.90;;;;;;5013048;28;20466;-54
2022/09/23 03:47:52;;;;;;;10.27;4.03;;;24.00;99.90;;;;;;5012979;28;20113;-56
2022/09/23 03:50:19;;;;;;;8.77;3.65;;;23.90;99.90;;;;;;5013001;28;20112;-53
2022/09/23 03:52:46;;;;;;;8.00;4.10;;;24.00;99.90;;;;;;5013264;28;20084;-53
2022/09/23 03:55:12;;;;;;;7.68;4.68;;;23.90;99.90;;;;;;5013031;28;20481;-53
2022/09/23 03:57:38;;;;;;;12.02;4.60;;;23.90;99.90;;;;;;5012904;28;20049;-53
2022/09/23 04:00:06;;;;;;;9.15;3.65;;;23.90;99.90;;;;;;4995743;28;20061;-53
2022/09/23 04:02:32;;;;;;;8.38;3.85;;;23.90;99.90;;;;;;5013180;28;20210;-53
2022/09/23 04:04:57;;;;;;;8.82;4.35;;;23.90;99.90;;;;;;5012755;28;20116;-53
2022/09/23 04:07:24;;;;;;;6.63;4.68;;;23.90;99.90;;;;;;5012646;28;20083;-53
2022/09/23 04:09:50;;;;;;;7.72;4.07;;;23.90;99.90;;;;;;5012693;28;20105;-53
2022/09/23 04:12:16;;;;;;;6.45;4.10;;;23.90;99.90;;;;;;5012843;28;20026;-54
2022/09/23 04:14:42;;;;;;;6.47;4.95;;;23.90;99.90;;;;;;5012573;28;20030;-54
2022/09/23 04:17:08;;;;;;;9.63;4.63;;;23.90;99.90;;;;;;5012459;28;20085;-54
2022/09/23 04:19:34;;;;;;;19.20;9.80;;;23.90;99.90;;;;;;5012441;28;20420;-53
2022/09/23 04:22:00;;;;;;;13.27;9.73;;;24.00;99.90;;;;;;5012310;28;20038;-54
2022/09/23 04:24:26;;;;;;;16.67;12.75;;;23.90;99.90;;;;;;5012402;28;20120;-54
2022/09/23 04:26:53;;;;;;;16.08;9.63;;;24.00;99.90;;;;;;5011715;28;20106;-54
2022/09/23 04:29:20;;;;;;;8.82;5.22;;;23.90;99.90;;;;;;5012460;28;20022;-54
2022/09/23 04:31:47;;;;;;;8.73;4.50;;;24.00;99.90;;;;;;5012553;28;20105;-53
2022/09/23 04:34:14;;;;;;;8.52;3.95;;;24.00;99.90;;;;;;5012183;28;20492;-54
2022/09/23 04:36:41;;;;;;;11.63;4.35;;;24.00;99.90;;;;;;5012321;28;20104;-53
2022/09/23 04:39:07;;;;;;;9.23;5.03;;;24.00;99.90;;;;;;5012228;28;20021;-53
2022/09/23 04:41:33;;;;;;;7.85;4.00;;;24.00;99.90;;;;;;5011978;28;20045;-53
2022/09/23 04:43:59;;;;;;;14.25;4.43;;;24.00;99.90;;;;;;5012126;28;20109;-53
2022/09/23 04:46:24;;;;;;;10.43;4.90;;;24.00;99.90;;;;;;5012116;28;20388;-53
2022/09/23 04:48:50;;;;;;;7.95;3.95;;;24.00;99.90;;;;;;5011925;28;20037;-54
2022/09/23 04:51:18;;;;;;;8.45;4.05;;;23.90;99.90;;;;;;5012175;28;20033;-54
2022/09/23 04:53:46;;;;;;;7.47;4.32;;;23.90;99.90;;;;;;5011827;28;20363;-55
2022/09/23 04:56:22;;;;;;;;;;;23.90;99.90;;;;;;5012204;28;20017;-53
2022/09/23 04:58:48;;;;;;;6.50;3.80;;;23.90;99.90;;;;;;5012381;28;19905;-54
2022/09/23 05:01:17;;;;;;;11.15;3.28;;;23.90;99.90;;;;;;5011637;28;20168;-53
2022/09/23 05:03:44;;;;;;;11.45;4.97;;;23.90;99.90;;;;;;5011715;28;20070;-55
2022/09/23 05:06:12;;;;;;;8.38;4.20;;;23.90;99.90;;;;;;5011756;28;20026;-54
2022/09/23 05:08:39;;;;;;;7.05;3.60;;;23.90;99.90;;;;;;5011639;28;20026;-54
2022/09/23 05:11:06;;;;;;;8.93;4.15;;;23.80;99.90;;;;;;5011649;28;20022;-54
2022/09/23 05:13:32;;;;;;;5.88;3.38;;;23.80;99.90;;;;;;5011625;28;20022;-54
2022/09/23 05:16:00;;;;;;;5.97;3.58;;;23.90;99.90;;;;;;5011621;28;20413;-54
2022/09/23 05:18:27;;;;;;;6.82;4.40;;;23.90;99.90;;;;;;5011562;28;20040;-53
2022/09/23 05:20:55;;;;;;;9.73;4.45;;;23.90;99.90;;;;;;5011406;28;20025;-53
2022/09/23 05:23:24;;;;;;;14.68;5.78;;;23.90;99.90;;;;;;5011635;28;20383;-52
2022/09/23 05:26:00;;;;;;;14.15;4.22;;;24.00;99.90;;;;;;5011693;28;20022;-53
2022/09/23 05:28:31;;;;;;;11.35;3.85;;;24.00;99.90;;;;;;5011493;28;20026;-53
2022/09/23 05:31:08;;;;;;;9.88;3.80;;;24.00;99.90;;;;;;5011248;28;20029;-53
2022/09/23 05:33:35;;;;;;;7.78;3.97;;;24.00;99.90;;;;;;5011400;28;20038;-52
2022/09/23 05:36:02;;;;;;;9.20;4.40;;;24.10;99.90;;;;;;5011354;28;20033;-54
2022/09/23 05:38:29;;;;;;;10.23;3.72;;;24.10;99.90;;;;;;5014032;28;20045;-52
2022/09/23 05:41:04;;;;;;;7.40;3.97;;;24.10;99.90;;;;;;5015224;28;20045;-53
2022/09/23 05:43:31;;;;;;;8.20;3.90;;;24.10;99.90;;;;;;4998085;28;20552;-53
2022/09/23 05:46:20;;;;;;;7.88;3.28;;;24.10;99.90;;;;;;5015227;28;20255;-53
2022/09/23 05:48:46;;;;;;;9.27;3.83;;;24.10;99.90;;;;;;4997663;28;20426;-53
2022/09/23 05:51:15;;;;;;;7.03;4.10;;;24.10;99.90;;;;;;5015137;28;20116;-53
2022/09/23 05:53:44;;;;;;;7.18;4.03;;;24.10;99.90;;;;;;5014985;28;20172;-54
2022/09/23 05:56:15;;;;;;;11.93;4.10;;;24.10;99.90;;;;;;5015013;28;20026;-54
2022/09/23 05:58:41;;;;;;;8.43;4.28;;;24.10;99.90;;;;;;5015012;28;20029;-54
2022/09/23 06:01:12;;;;;;;10.07;4.07;;;24.20;99.90;;;;;;5014771;28;20050;-54
2022/09/23 06:03:38;;;;;;;9.32;4.25;;;24.20;99.90;;;;;;5015020;28;20037;-54
2022/09/23 06:06:04;;;;;;;9.35;3.72;;;24.20;99.90;;;;;;4997270;28;20149;-54
2022/09/23 06:08:31;;;;;;;10.23;4.90;;;24.20;99.90;;;;;;5014773;28;20371;-53
2022/09/23 06:10:57;;;;;;;11.20;6.23;;;24.20;99.90;;;;;;5014606;28;20123;-54
2022/09/23 06:13:24;;;;;;;15.95;4.95;;;24.20;99.90;;;;;;5014936;28;20418;-54
2022/09/23 06:15:51;;;;;;;;;;;24.20;99.90;;;;;;5015230;28;20101;-53
2022/09/23 06:18:16;;;;;;;11.30;4.15;;;24.20;99.90;;;;;;5014548;28;19905;-54
2022/09/23 06:20:42;;;;;;;12.77;4.82;;;24.20;99.90;;;;;;5014654;28;20088;-54
2022/09/23 06:23:10;;;;;;;10.10;4.85;;;24.20;99.90;;;;;;5014161;28;20030;-54
2022/09/23 06:25:37;;;;;;;;;;;24.20;99.90;;;;;;5014918;28;20026;-54
2022/09/23 06:28:03;;;;;;;14.98;4.43;;;24.20;99.90;;;;;;5014190;28;20361;-54
2022/09/23 06:30:29;;;;;;;10.80;4.70;;;24.20;99.90;;;;;;5014397;28;20038;-53
2022/09/23 06:32:56;;;;;;;9.00;4.28;;;24.20;99.90;;;;;;5014333;28;20041;-54
2022/09/23 06:35:26;;;;;;;7.63;4.03;;;24.20;99.90;;;;;;5014542;28;20022;-55
2022/09/23 06:37:55;;;;;;;8.07;3.60;;;24.20;99.90;;;;;;4996966;28;20076;-54
2022/09/23 06:40:21;;;;;;;12.70;4.10;;;24.20;99.90;;;;;;5014320;28;20152;-54
2022/09/23 06:42:47;;;;;;;9.85;4.85;;;24.30;99.90;;;;;;5014324;28;20069;-54
2022/09/23 06:45:14;;;;;;;15.77;4.60;;;24.30;99.90;;;;;;5014147;28;20061;-54
2022/09/23 06:47:43;;;;;;;10.45;3.85;;;24.30;99.90;;;;;;5013892;28;20022;-54
2022/09/23 06:50:11;;;;;;;10.40;4.63;;;24.30;99.90;;;;;;4995655;28;20490;-54
2022/09/23 06:52:37;;;;;;;7.93;4.43;;;24.30;99.90;;;;;;5013851;28;20112;-54
2022/09/23 06:55:03;;;;;;;16.30;5.60;;;24.30;99.90;;;;;;5013774;28;20025;-54
2022/09/23 06:57:30;;;;;;;12.98;4.68;;;24.40;99.90;;;;;;5013766;28;20482;-54
2022/09/23 06:59:57;;;;;;;14.35;4.72;;;24.40;99.90;;;;;;5013811;28;20038;-54
2022/09/23 07:02:24;;;;;;;;;;;24.40;99.90;;;;;;5014235;28;20037;-55
2022/09/23 07:04:50;;;;;;;18.55;5.80;;;24.40;99.90;;;;;;5013717;28;19933;-54
2022/09/23 07:07:17;;;;;;;20.00;7.53;;;24.50;99.90;;;;;;5013601;28;20401;-54
2022/09/23 07:09:43;;;;;;;17.70;5.80;;;24.50;99.90;;;;;;5013564;28;20021;-55
2022/09/23 07:12:09;;;;;;;18.73;5.50;;;24.50;99.90;;;;;;5013371;28;20611;-54
2022/09/23 07:14:35;;;;;;;16.02;5.32;;;24.50;99.90;;;;;;5013501;28;20036;-54
2022/09/23 07:17:02;;;;;;;19.33;5.82;;;24.50;99.90;;;;;;5013381;28;20056;-54
2022/09/23 07:19:28;;;;;;;10.90;4.30;;;24.60;99.90;;;;;;5013449;28;20058;-54
2022/09/23 07:21:54;;;;;;;10.40;4.20;;;24.60;99.90;;;;;;5013489;28;20449;-55
2022/09/23 07:24:20;;;;;;;13.60;4.82;;;24.70;99.90;;;;;;5013104;28;20116;-54
2022/09/23 07:26:45;;;;;;;13.35;4.75;;;24.70;99.90;;;;;;5013146;28;20030;-54
2022/09/23 07:29:12;;;;;;;11.23;5.18;;;24.70;99.90;;;;;;5013113;28;20101;-55
2022/09/23 07:31:38;;;;;;;17.25;5.43;;;24.70;99.90;;;;;;5013051;28;20014;-55
2022/09/23 07:34:05;;;;;;;14.25;6.03;;;24.70;99.90;;;;;;5013119;28;20386;-55
2022/09/23 07:36:32;;;;;;;22.70;6.25;;;24.80;99.90;;;;;;5013058;28;20018;-55
2022/09/23 07:39:02;;;;;;;20.05;5.45;;;24.80;99.90;;;;;;5013221;28;20026;-55
2022/09/23 07:41:29;;;;;;;15.43;4.82;;;24.80;99.90;;;;;;5013159;28;20034;-54
2022/09/23 07:43:57;;;;;;;13.18;6.50;;;24.90;99.90;;;;;;5012886;28;20160;-55
2022/09/23 07:46:26;;;;;;;30.83;11.18;;;24.90;99.90;;;;;;5012730;28;20547;-55
2022/09/23 07:48:52;;;;;;;16.45;5.95;;;24.90;99.90;;;;;;5012836;28;20505;-55
2022/09/23 07:51:19;;;;;;;23.75;5.32;;;25.00;99.90;;;;;;5012643;28;20038;-55
2022/09/23 07:53:50;;;;;;;16.55;5.85;;;25.00;99.90;;;;;;5012733;28;20014;-55
2022/09/23 07:56:18;;;;;;;14.35;6.38;;;25.00;99.90;;;;;;5012706;28;20037;-55
2022/09/23 07:58:44;;;;;;;24.00;6.25;;;25.00;99.90;;;;;;5012484;28;20470;-55
2022/09/23 08:01:10;;;;;;;14.05;6.90;;;25.10;99.90;;;;;;5011140;28;20058;-54
2022/09/23 08:03:37;;;;;;;11.38;5.28;;;25.10;99.90;;;;;;5012372;28;20033;-55
2022/09/23 08:06:09;;;;;;;11.93;5.45;;;25.20;99.90;;;;;;5012447;28;20025;-55
2022/09/23 08:08:39;;;;;;;12.40;4.95;;;25.20;99.90;;;;;;5012487;28;20117;-55
2022/09/23 08:11:06;;;;;;;11.15;5.28;;;25.20;99.90;;;;;;5012324;28;20158;-55
2022/09/23 08:13:33;;;;;;;9.25;5.15;;;25.20;99.90;;;;;;5012756;28;20026;-55
2022/09/23 08:15:59;;;;;;;9.82;5.20;;;25.20;99.90;;;;;;5012405;28;20080;-55
2022/09/23 08:18:25;;;;;;;10.73;5.65;;;25.10;99.90;;;;;;4994678;28;20026;-55
2022/09/23 08:20:51;;;;;;;17.55;6.07;;;25.10;99.90;;;;;;5012190;28;20061;-56
2022/09/23 08:23:19;;;;;;;12.32;5.43;;;25.10;99.90;;;;;;5012225;28;20069;-55
2022/09/23 08:25:46;;;;;;;16.67;6.30;;;25.20;99.90;;;;;;5012198;28;20601;-55
2022/09/23 08:28:15;;;;;;;11.23;5.63;;;25.20;99.90;;;;;;5012316;28;20481;-55
2022/09/23 08:30:46;;;;;;;13.60;5.35;;;25.20;99.90;;;;;;5012021;28;20045;-55
2022/09/23 08:33:12;;;;;;;9.52;4.60;;;25.20;99.90;;;;;;5012126;28;20041;-55
2022/09/23 08:35:39;;;;;;;9.02;4.72;;;25.20;99.90;;;;;;5011760;28;20030;-55
2022/09/23 08:38:05;;;;;;;10.05;5.22;;;25.30;99.90;;;;;;5012044;28;20032;-55
2022/09/23 08:40:37;;;;;;;14.43;5.00;;;25.30;99.90;;;;;;5012152;28;20108;-55
2022/09/23 08:43:06;;;;;;;11.80;4.65;;;25.30;99.90;;;;;;5011794;28;20073;-55
2022/09/23 08:45:33;;;;;;;9.52;4.28;;;25.30;99.90;;;;;;5012212;28;20224;-56
2022/09/23 08:48:05;;;;;;;14.02;4.85;;;25.40;99.90;;;;;;5011826;28;20583;-55
2022/09/23 08:50:42;;;;;;;11.60;4.97;;;25.40;99.90;;;;;;5011980;28;20029;-55
2022/09/23 08:53:37;;;;;;;12.20;4.95;;;25.40;99.90;;;;;;5011594;28;20014;-55
2022/09/23 08:56:13;;;;;;;8.25;5.00;;;25.50;99.90;;;;;;5011890;28;20034;-55
2022/09/23 08:58:47;;;;;;;12.35;3.90;;;25.50;99.90;;;;;;5011621;28;20030;-55
2022/09/23 09:01:26;;;;;;;8.35;3.58;;;25.60;99.90;;;;;;5011361;28;20563;-55
2022/09/23 09:03:55;;;;;;;8.02;3.45;;;25.60;99.90;;;;;;5011568;28;20034;-55
2022/09/23 09:06:39;;;;;;;8.65;3.60;;;25.70;99.90;;;;;;5011567;28;20415;-55
2022/09/23 09:09:25;;;;;;;4.72;3.60;;;25.70;99.90;;;;;;5011797;28;20025;-55
2022/09/23 09:11:59;;;;;;;8.82;3.60;;;25.70;99.90;;;;;;5011333;28;20018;-55
2022/09/23 09:14:38;;;;;;;6.78;3.80;;;25.80;99.90;;;;;;5011499;28;20508;-56
2022/09/23 09:17:08;;;;;;;10.23;3.35;;;25.80;99.90;;;;;;5011873;28;20117;-54
2022/09/23 09:19:52;;;;;;;7.32;3.15;;;25.90;99.90;;;;;;5011713;28;20061;-54
2022/09/23 09:22:24;;;;;;;6.78;3.30;;;25.90;99.90;;;;;;5011228;28;20084;-54
2022/09/23 09:24:59;;;;;;;6.25;2.80;;;26.00;99.90;;;;;;5011404;28;20353;-55
2022/09/23 09:27:25;;;;;;;9.57;3.10;;;26.00;99.90;;;;;;5011389;28;20457;-55
2022/09/23 09:29:53;;;;;;;11.15;3.50;;;26.00;99.90;;;;;;5011072;28;20028;-55
2022/09/23 09:32:48;;;;;;;8.25;2.72;;;26.10;99.90;;;;;;5011411;28;20057;-54
2022/09/23 09:35:33;;;;;;;5.70;2.67;;;26.10;99.90;;;;;;5003036;28;20030;-55
2022/09/23 09:38:00;;;;;;;8.70;3.38;;;26.10;99.90;;;;;;5011258;28;20025;-54
2022/09/23 09:40:26;;;;;;;9.60;3.27;;;26.20;99.90;;;;;;5011335;28;20014;-54
2022/09/23 09:42:52;;;;;;;9.15;3.08;;;26.20;99.90;;;;;;5011444;28;20034;-55
2022/09/23 09:45:30;;;;;;;9.88;4.35;;;26.20;99.90;;;;;;5011064;28;20030;-54
2022/09/23 09:48:09;;;;;;;6.97;3.08;;;26.30;99.90;;;;;;4993295;28;20064;-55
2022/09/23 09:50:50;;;;;;;9.43;3.20;;;26.30;99.90;;;;;;4995072;28;20021;-55
2022/09/23 09:53:27;;;;;;;6.78;3.72;;;26.40;99.90;;;;;;5011055;28;20030;-54
2022/09/23 09:56:05;;;;;;;12.43;3.92;;;26.40;99.90;;;;;;5011193;28;20064;-55
2022/09/23 09:58:42;;;;;;;5.80;4.10;;;26.40;99.90;;;;;;5010918;28;20370;-54
2022/09/23 10:01:21;;;;;;;9.43;5.00;;;26.50;99.90;;;;;;5010842;28;20046;-55
2022/09/23 10:03:47;;;;;;;11.07;3.65;;;26.50;99.90;;;;;;5010879;28;20539;-55
2022/09/23 10:06:24;;;;;;;9.65;3.40;;;26.50;99.90;;;;;;5010976;28;20022;-55
2022/09/23 10:09:08;;;;;;;9.93;3.63;;;26.50;99.90;;;;;;5010887;28;20057;-55
2022/09/23 10:11:35;;;;;;;8.65;4.07;;;26.50;99.90;;;;;;5010864;28;20034;-54
2022/09/23 10:14:16;;;;;;;6.80;3.60;;;26.50;99.90;;;;;;5010852;28;20034;-54
2022/09/23 10:16:43;;;;;;;8.63;3.47;;;26.50;99.90;;;;;;5010928;28;20456;-55
2022/09/23 10:19:28;;;;;;;12.03;4.37;;;26.50;99.90;;;;;;5011147;28;20076;-55
2022/09/23 10:21:59;;;;;;;7.95;3.80;;;26.60;99.90;;;;;;5010767;28;20029;-54
2022/09/23 10:24:31;;;;;;;6.43;3.42;;;26.60;99.90;;;;;;5011357;28;20030;-55
2022/09/23 10:27:06;;;;;;;9.70;3.40;;;26.70;99.90;;;;;;5014420;28;20054;-55
2022/09/23 10:29:47;;;;;;;7.03;3.55;;;26.80;99.90;;;;;;5014343;28;20087;-54
2022/09/23 10:32:37;;;;;;;7.00;3.60;;;26.80;99.90;;;;;;5014170;28;20385;-55
2022/09/23 10:35:07;;;;;;;10.35;3.75;;;26.90;99.90;;;;;;5013921;28;20049;-55
2022/09/23 10:37:33;;;;;;;8.38;3.30;;;26.90;99.90;;;;;;5014065;28;20111;-56
2022/09/23 10:48:35;;;;;;;4.20;2.35;;;27.20;99.90;;;;;;5014367;28;20489;-56
2022/09/23 10:51:11;;;;;;;4.70;2.83;;;27.20;99.90;;;;;;5013968;28;20493;-55
2022/09/23 10:53:49;;;;;;;5.88;2.40;;;27.30;99.90;;;;;;5013981;28;20109;-56
2022/09/23 10:56:25;;;;;;;4.35;1.63;;;27.40;99.90;;;;;;5013944;28;20161;-55
2022/09/23 10:58:53;;;;;;;7.35;1.98;;;27.40;99.90;;;;;;5013872;28;20025;-54
2022/09/23 11:01:34;;;;;;;5.22;2.05;;;27.40;99.90;;;;;;5013643;28;20100;-55
2022/09/23 11:04:31;;;;;;;5.70;2.75;;;27.50;99.90;;;;;;5013666;28;20038;-55
2022/09/23 11:07:26;;;;;;;4.03;2.08;;;27.50;99.90;;;;;;5013720;28;20489;-55
2022/09/23 11:09:55;;;;;;;6.13;1.95;;;27.60;99.90;;;;;;5013639;28;20045;-55
2022/09/23 11:12:57;;;;;;;4.50;2.63;;;27.60;99.90;;;;;;5013688;28;20026;-55
2022/09/23 11:15:45;;;;;;;6.85;2.30;;;27.60;99.90;;;;;;5013437;28;20120;-55
2022/09/23 11:18:28;;;;;;;4.93;2.63;;;27.70;99.90;;;;;;5013674;28;20071;-55
2022/09/23 11:21:00;;;;;;;5.43;1.95;;;27.80;99.90;;;;;;5013482;28;20026;-55
2022/09/23 11:23:28;;;;;;;5.72;2.40;;;27.80;99.90;;;;;;5013376;28;20437;-55
2022/09/23 11:26:45;;;;;;;4.03;2.15;;;27.90;99.90;;;;;;5013327;28;20030;-55
2022/09/23 11:29:41;;;;;;;;;;;27.90;99.90;;;;;;4980611;28;20147;-55
2022/09/23 11:32:10;;;;;;;8.52;2.55;;;27.90;99.90;;;;;;5013429;28;20409;-55
2022/09/23 11:34:51;;;;;;;5.63;2.30;;;28.00;99.90;;;;;;5013103;28;20516;-55
2022/09/23 11:37:22;;;;;;;6.82;1.95;;;28.00;99.90;;;;;;4995339;28;20037;-56
2022/09/23 11:40:15;;;;;;;4.68;2.10;;;28.10;99.90;;;;;;5013040;28;20018;-55
2022/09/23 11:42:57;;;;;;;7.32;2.25;;;28.20;99.90;;;;;;5012491;28;20057;-55
2022/09/23 11:45:57;;;;;;;8.63;2.65;;;28.30;99.90;;;;;;5013003;28;20493;-55
2022/09/23 11:48:37;;;;;;;5.78;2.42;;;28.30;99.90;;;;;;4980766;28;20556;-55
2022/09/23 11:51:38;;;;;;;5.72;2.50;;;28.40;99.90;;;;;;5012934;28;20022;-55
2022/09/23 11:54:14;;;;;;;3.78;2.05;;;28.40;99.90;;;;;;4995237;28;20029;-55
2022/09/23 11:56:52;;;;;;;7.15;2.55;;;28.50;99.90;;;;;;5012736;28;20022;-55
2022/09/23 11:59:48;;;;;;;5.90;2.63;;;28.50;99.90;;;;;;5012711;28;20108;-55
2022/09/23 12:02:32;;;;;;;4.80;1.80;;;28.50;99.90;;;;;;5012873;28;20038;-55
2022/09/23 12:05:07;;;;;;;8.43;2.60;;;28.60;99.90;;;;;;5013025;28;20343;-55
2022/09/23 12:07:52;;;;;;;4.70;2.13;;;28.60;99.90;;;;;;5012524;28;20037;-55
2022/09/23 12:10:21;;;;;;;7.57;2.67;;;28.70;99.90;;;;;;5012509;28;20026;-55
2022/09/23 12:12:57;;;;;;;5.70;2.40;;;28.70;99.90;;;;;;5012630;28;20030;-56
2022/09/23 12:15:42;;;;;;;7.43;3.10;;;28.70;99.90;;;;;;5012405;28;20026;-55
2022/09/23 12:18:36;;;;;;;4.85;2.47;;;28.70;99.90;;;;;;5012513;28;20160;-55
2022/09/23 12:21:01;;;;;;;4.68;2.10;;;28.80;99.90;;;;;;5012387;28;20030;-55
2022/09/23 12:23:33;;;;;;;4.93;2.50;;;28.80;99.90;;;;;;5012305;28;20041;-55
2022/09/23 12:26:16;;;;;;;4.38;2.50;;;28.80;99.90;;;;;;5012453;28;20029;-55
2022/09/23 12:28:44;;;;;;;6.93;2.65;;;28.80;99.90;;;;;;5012236;28;20034;-55
2022/09/23 12:31:16;;;;;;;5.70;2.55;;;28.90;99.90;;;;;;5012232;28;20033;-55
2022/09/23 12:33:53;;;;;;;7.13;2.47;;;28.90;99.90;;;;;;5012067;28;20034;-55
2022/09/23 12:36:34;;;;;;;6.27;2.10;;;28.90;99.90;;;;;;5012273;28;20033;-55
2022/09/23 12:39:22;;;;;;;6.50;2.38;;;29.00;99.90;;;;;;5012073;28;20264;-55
2022/09/23 12:41:53;;;;;;;7.38;2.42;;;29.00;99.90;;;;;;5012072;28;20366;-55
2022/09/23 12:44:40;;;;;;;4.18;2.20;;;29.00;99.90;;;;;;5012188;28;20470;-55
2022/09/23 12:47:29;;;;;;;5.03;1.90;;;29.10;99.90;;;;;;5011228;28;20398;-55
2022/09/23 12:49:55;;;;;;;9.30;2.30;;;29.30;99.90;;;;;;5012005;28;20018;-54
2022/09/23 12:52:29;;;;;;;3.23;2.03;;;29.30;99.90;;;;;;5012069;28;20037;-55
2022/09/23 12:54:57;;;;;;;5.88;2.42;;;29.50;99.90;;;;;;5011953;28;20052;-55
2022/09/23 12:57:35;;;;;;;4.30;2.90;;;29.60;99.90;;;;;;5011853;28;20022;-55
2022/09/23 13:00:11;;;;;;;4.45;2.25;;;29.70;99.90;;;;;;5011425;28;20052;-55
2022/09/23 13:02:42;;;;;;;12.80;4.15;;;29.80;99.90;;;;;;5011588;28;20091;-55
2022/09/23 13:08:14;;;;;;;7.05;2.30;;;29.80;99.90;;;;;;4967840;28;20502;-55
2022/09/23 13:10:48;;;;;;;5.63;2.65;;;29.70;99.90;;;;;;5009421;28;20545;-55
2022/09/23 13:13:36;;;;;;;11.10;2.30;;;29.80;99.90;;;;;;5002133;28;20049;-55
2022/09/23 13:16:24;;;;;;;4.93;2.78;;;29.80;99.90;;;;;;4990777;28;20117;-55
2022/09/23 13:18:59;;;;;;;4.60;2.05;;;29.90;99.90;;;;;;4999481;28;20365;-55
2022/09/23 13:21:43;;;;;;;7.53;1.98;;;29.80;99.90;;;;;;5011262;28;20109;-54
2022/09/23 13:24:12;;;;;;;8.52;2.22;;;29.80;99.90;;;;;;5011027;28;20037;-56